Daytona Beach International Airport
KDAB : now visible

Airfield :











YOU CAN JOIN US ON...

 
LOGIN :

Register | Disclaimer

   EN    FR    IT 

 









Legend :    VFR   Marginal VFR   IFR   Intensive IFR   Very Intensive IFR
Visi :
Ceiling :
>= 8 km
>= 3000ft
5 to 8 km
1000 to 3000 ft
1500m to 5 km
500 to 1000 ft
800 to 1500m
200 to 500 ft
< 800m
< 200 ft
Symbols :   Thunderstorms  Fog  Heavy snow  Heavy precipitations  Wind > 20 kt







- Airport Elevation : 34 ft
- IATA code : DAB


KDAB - Daytona Beach International

CURRENT METAR :
  • 191353Z VRB03KT 10SM FEW080 FEW200 29/25 A3013 RMK AO2 SLP201 T02940250

EXPIRED METARs :
  • 191253Z 21005KT 10SM FEW080 FEW200 27/24 A3011 RMK AO2 SLP196 T02720244
  • 191153Z 22004KT 10SM FEW080 SCT200 25/24 A3009 RMK AO2 SLP188 70001 T02500244 10250 20233 53012

TAF KDAB
Valid from the 19 at 12:00 until the 20 at 12:00 UTC


191123Z 1912/2012 VRB03KT P6SM SCT080 SCT200
FM191400 19005KT P6SM SCT030
FM191800 11008KT P6SM VCTS SCT035CB SCT250
FM200000 VRB03KT P6SM FEW040 BKN250
KZJX FIR / North America



MET'MAP, your aeronautical weather chart ! - Copyright ORBIFLY December 2007 - Disclaimer

ORBIFLY MET'MAP TEAM :

Programming & Development : Alexandra Zaïnal
Concept & Development : Baudouin d'Aumeries
Co-Development & Prog : Marc-Olivier Méhu
Technical & hardware support : Manuel Goepfert

Contact : metmap@orbifly.com




SOURCES & CREDITS :

   NOAA       Earth
Advisory